createdAt,value
2019-03-20T00:00:25.548Z,4.07
2019-03-20T00:02:53.957Z,4.00
2019-03-20T00:05:21.790Z,4.07
2019-03-20T00:07:50.128Z,3.98
2019-03-20T00:10:18.550Z,4.04
2019-03-20T00:12:46.636Z,4.01
2019-03-20T00:15:14.909Z,4.01
2019-03-20T00:17:42.763Z,3.95
2019-03-20T00:20:10.905Z,3.97
2019-03-20T00:22:38.996Z,3.99
2019-03-20T00:25:07.270Z,4.03
2019-03-20T00:27:35.318Z,4.04
2019-03-20T00:30:03.859Z,4.05
2019-03-20T00:32:32.028Z,3.98
2019-03-20T00:35:01.096Z,3.97
2019-03-20T00:37:29.519Z,3.96
2019-03-20T00:39:57.463Z,3.96
2019-03-20T00:42:25.473Z,3.96
2019-03-20T00:44:53.427Z,4.06
2019-03-20T00:47:21.683Z,4.02
2019-03-20T00:49:49.570Z,3.98
2019-03-20T00:52:17.652Z,3.92
2019-03-20T00:54:45.442Z,3.86
2019-03-20T00:57:13.612Z,3.84
2019-03-20T00:59:41.611Z,3.74
2019-03-20T01:02:09.633Z,3.77
2019-03-20T01:04:37.579Z,3.73
2019-03-20T01:07:07.071Z,3.66
2019-03-20T01:09:35.323Z,3.58
2019-03-20T01:12:03.351Z,3.51
2019-03-20T01:14:31.605Z,3.45
2019-03-20T01:16:59.600Z,3.39
2019-03-20T01:19:27.554Z,3.33
2019-03-20T01:21:55.707Z,3.22
2019-03-20T01:24:23.783Z,3.05
2019-03-20T01:26:51.841Z,2.99
2019-03-20T01:29:19.906Z,2.91
2019-03-20T01:31:47.943Z,2.89
2019-03-20T01:34:16.087Z,2.84
2019-03-20T01:36:44.016Z,2.80
2019-03-20T01:39:12.229Z,2.75
2019-03-20T01:41:40.547Z,2.69
2019-03-20T01:44:08.844Z,2.60
2019-03-20T01:46:36.727Z,2.53
2019-03-20T01:49:05.020Z,2.60
2019-03-20T01:51:33.094Z,2.59
2019-03-20T01:54:01.076Z,2.55
2019-03-20T01:56:29.205Z,2.57
2019-03-20T01:58:57.442Z,2.60
2019-03-20T02:01:25.460Z,2.53
2019-03-20T02:03:53.376Z,2.61
2019-03-20T02:06:21.258Z,2.60
2019-03-20T02:08:49.227Z,2.58
2019-03-20T02:11:17.561Z,2.58
2019-03-20T02:13:45.545Z,2.61
2019-03-20T02:16:13.541Z,2.65
2019-03-20T02:18:42.438Z,2.69
2019-03-20T02:21:10.645Z,2.60
2019-03-20T02:23:38.753Z,2.54
2019-03-20T02:26:06.713Z,2.50
2019-03-20T02:28:34.575Z,2.41
2019-03-20T02:31:02.546Z,2.31
2019-03-20T02:33:30.489Z,2.42
2019-03-20T02:35:58.691Z,2.41
2019-03-20T02:38:26.845Z,2.42
2019-03-20T02:40:56.302Z,2.42
2019-03-20T02:43:24.106Z,2.51
2019-03-20T02:45:52.038Z,2.48
2019-03-20T02:48:19.945Z,2.47
2019-03-20T02:50:47.948Z,2.42
2019-03-20T02:53:15.828Z,2.30
2019-03-20T02:55:43.685Z,2.25
2019-03-20T02:58:11.603Z,2.15
2019-03-20T03:00:39.775Z,2.08
2019-03-20T03:03:07.891Z,2.13
2019-03-20T03:05:35.700Z,2.16
2019-03-20T03:08:03.650Z,2.20
2019-03-20T03:10:31.719Z,2.14
2019-03-20T03:12:59.572Z,2.09
2019-03-20T03:15:27.954Z,2.18
2019-03-20T03:17:55.881Z,2.21
2019-03-20T03:20:23.805Z,2.17
2019-03-20T03:22:51.750Z,2.14
2019-03-20T03:25:19.803Z,2.13
2019-03-20T03:27:47.882Z,2.13
2019-03-20T03:30:16.315Z,2.26
2019-03-20T03:32:44.876Z,2.28
2019-03-20T03:35:17.370Z,2.38
2019-03-20T03:37:43.203Z,2.26
2019-03-20T03:40:11.696Z,2.22
2019-03-20T03:42:39.796Z,2.21
2019-03-20T03:45:09.402Z,2.21
2019-03-20T03:47:37.415Z,2.00
2019-03-20T03:50:05.786Z,2.05
2019-03-20T03:52:33.798Z,2.00
2019-03-20T03:55:01.955Z,1.86
2019-03-20T03:57:30.216Z,1.79
2019-03-20T03:59:58.583Z,1.66
2019-03-20T04:02:26.763Z,1.54
2019-03-20T04:04:54.760Z,1.56
2019-03-20T04:07:23.811Z,1.39
2019-03-20T04:09:52.006Z,1.38
2019-03-20T04:12:19.855Z,1.42
2019-03-20T04:14:48.136Z,1.27
2019-03-20T04:17:26.369Z,1.30
2019-03-20T04:19:54.625Z,1.22
2019-03-20T04:22:22.449Z,1.12
2019-03-20T04:24:50.662Z,1.08
2019-03-20T04:27:19.631Z,0.93
2019-03-20T04:29:47.629Z,0.88
2019-03-20T04:32:15.555Z,0.78
2019-03-20T04:34:43.468Z,0.80
2019-03-20T04:37:11.458Z,0.88
2019-03-20T04:39:39.522Z,0.72
2019-03-20T04:42:07.836Z,0.71
2019-03-20T04:44:35.963Z,0.80
2019-03-20T04:47:04.235Z,0.75
2019-03-20T04:49:32.395Z,0.59
2019-03-20T04:52:00.367Z,0.59
2019-03-20T04:54:28.468Z,0.39
2019-03-20T04:56:56.417Z,0.45
2019-03-20T04:59:24.395Z,0.39
2019-03-20T05:01:53.873Z,0.46
2019-03-20T05:04:21.849Z,0.36
2019-03-20T05:06:58.278Z,0.45
2019-03-20T05:09:19.756Z,0.44
2019-03-20T05:11:47.720Z,0.49
2019-03-20T05:14:15.477Z,0.44
2019-03-20T05:16:43.468Z,0.52
2019-03-20T05:19:12.947Z,0.61
2019-03-20T05:21:41.034Z,0.71
2019-03-20T05:24:09.100Z,0.89
2019-03-20T05:26:36.870Z,0.86
2019-03-20T05:29:05.486Z,0.89
2019-03-20T05:31:33.497Z,0.94
2019-03-20T05:34:01.517Z,1.01
2019-03-20T05:36:29.458Z,1.11
2019-03-20T05:38:57.339Z,1.10
2019-03-20T05:41:26.223Z,1.29
2019-03-20T05:43:54.308Z,1.41
2019-03-20T05:46:22.521Z,1.56
2019-03-20T05:48:50.622Z,1.65
2019-03-20T05:51:18.465Z,1.84
2019-03-20T05:53:46.524Z,2.02
2019-03-20T05:56:14.380Z,2.38
2019-03-20T05:58:42.432Z,2.52
2019-03-20T06:01:10.158Z,2.95
2019-03-20T06:03:38.264Z,3.14
2019-03-20T06:06:06.179Z,3.32
2019-03-20T06:08:34.098Z,3.56
2019-03-20T06:11:02.109Z,3.85
2019-03-20T06:13:30.184Z,4.11
2019-03-20T06:15:58.204Z,4.48
2019-03-20T06:18:26.269Z,4.85
2019-03-20T06:20:54.283Z,5.07
2019-03-20T06:23:22.411Z,5.29
2019-03-20T06:25:51.423Z,5.49
2019-03-20T06:28:19.698Z,5.54
2019-03-20T06:30:47.964Z,5.66
2019-03-20T06:33:15.771Z,5.80
2019-03-20T06:35:43.845Z,5.74
2019-03-20T06:38:11.977Z,6.05
2019-03-20T06:40:39.872Z,6.23
2019-03-20T06:43:08.123Z,6.53
2019-03-20T06:45:36.331Z,6.75
2019-03-20T06:48:04.485Z,7.07
2019-03-20T06:50:33.184Z,7.38
2019-03-20T06:53:01.280Z,7.58
2019-03-20T06:55:31.895Z,7.79
2019-03-20T06:58:00.419Z,8.13
2019-03-20T07:01:05.621Z,8.28
2019-03-20T07:03:40.735Z,8.78
2019-03-20T07:06:42.148Z,9.04
2019-03-20T07:09:38.392Z,9.31
2019-03-20T07:12:06.170Z,9.51
2019-03-20T07:14:34.135Z,9.85
2019-03-20T07:17:02.068Z,9.91
2019-03-20T07:19:30.250Z,10.55
2019-03-20T07:21:58.283Z,11.01
2019-03-20T07:24:26.437Z,12.47
2019-03-20T07:26:56.013Z,13.23
2019-03-20T07:29:23.906Z,12.33
2019-03-20T07:31:53.426Z,11.68
2019-03-20T07:34:22.506Z,11.56
2019-03-20T07:36:50.569Z,10.68
2019-03-20T07:39:18.871Z,10.18
2019-03-20T07:41:46.837Z,10.33
2019-03-20T07:44:15.421Z,10.59
2019-03-20T07:46:43.490Z,10.53
2019-03-20T07:49:13.037Z,10.54
2019-03-20T07:51:40.904Z,10.68
2019-03-20T07:54:09.957Z,10.65
2019-03-20T07:56:37.869Z,10.14
2019-03-20T07:59:05.904Z,10.12
2019-03-20T08:01:33.753Z,10.30
2019-03-20T08:04:01.849Z,10.15
2019-03-20T08:06:29.609Z,10.22
2019-03-20T08:08:57.456Z,10.36
2019-03-20T08:11:25.434Z,10.23
2019-03-20T08:13:53.399Z,10.30
2019-03-20T08:16:21.427Z,10.45
2019-03-20T08:18:49.599Z,10.40
2019-03-20T08:21:17.490Z,10.66
2019-03-20T08:23:45.597Z,10.17
2019-03-20T08:26:13.774Z,9.70
2019-03-20T08:28:41.732Z,9.76
2019-03-20T08:31:09.944Z,9.55
2019-03-20T08:33:37.763Z,9.64
2019-03-20T08:36:06.160Z,9.19
2019-03-20T08:38:34.072Z,9.22
2019-03-20T08:41:02.158Z,9.23
2019-03-20T08:43:30.158Z,9.34
2019-03-20T08:45:58.366Z,9.28
2019-03-20T08:48:26.393Z,9.63
2019-03-20T08:50:54.701Z,11.13
2019-03-20T08:53:22.608Z,12.30
2019-03-20T08:55:50.530Z,11.65
2019-03-20T08:58:18.478Z,11.01
2019-03-20T09:00:46.750Z,10.73
2019-03-20T09:03:14.774Z,10.53
2019-03-20T09:05:42.964Z,10.46
2019-03-20T09:08:10.951Z,10.49
2019-03-20T09:10:38.963Z,10.33
2019-03-20T09:13:06.835Z,10.14
2019-03-20T09:15:36.863Z,9.59
2019-03-20T09:18:04.718Z,11.10
2019-03-20T09:20:33.045Z,14.91
2019-03-20T09:23:00.950Z,13.38
2019-03-20T09:25:29.005Z,12.02
2019-03-20T09:27:57.333Z,11.49
2019-03-20T09:30:25.491Z,11.33
2019-03-20T09:32:53.492Z,10.75
2019-03-20T09:35:21.594Z,10.42
2019-03-20T09:37:52.413Z,10.42
2019-03-20T09:40:19.612Z,10.34
2019-03-20T09:42:47.645Z,10.46
2019-03-20T09:45:16.010Z,10.41
2019-03-20T09:47:44.905Z,10.47
2019-03-20T09:50:14.391Z,10.53
2019-03-20T09:52:42.239Z,11.07
2019-03-20T09:55:10.088Z,11.79
2019-03-20T09:57:38.096Z,12.21
2019-03-20T10:00:26.094Z,12.30
2019-03-20T10:02:54.082Z,12.01
2019-03-20T10:05:22.763Z,11.86
2019-03-20T10:07:50.877Z,11.92
2019-03-20T10:10:20.479Z,11.35
2019-03-20T10:12:48.509Z,11.25
2019-03-20T10:15:17.078Z,10.86
2019-03-20T10:17:47.644Z,10.48
2019-03-20T10:20:17.115Z,10.90
2019-03-20T10:22:45.084Z,14.45
2019-03-20T10:25:13.036Z,16.85
2019-03-20T10:27:41.975Z,18.56
2019-03-20T10:30:12.929Z,19.71
2019-03-20T10:32:40.815Z,20.91
2019-03-20T10:35:08.875Z,20.91
2019-03-20T10:37:37.026Z,22.60
2019-03-20T10:40:06.217Z,24.08
2019-03-20T10:42:34.181Z,23.15
2019-03-20T10:45:02.184Z,22.83
2019-03-20T10:47:30.124Z,22.86
2019-03-20T10:49:58.167Z,23.74
2019-03-20T10:52:26.338Z,23.99
2019-03-20T10:54:54.384Z,23.91
2019-03-20T10:57:22.234Z,23.12
2019-03-20T10:59:50.281Z,23.57
2019-03-20T11:02:18.274Z,23.07
2019-03-20T11:04:46.294Z,23.10
2019-03-20T11:07:14.335Z,22.46
2019-03-20T11:09:42.200Z,22.54
2019-03-20T11:12:10.269Z,22.32
2019-03-20T11:14:38.252Z,22.49
2019-03-20T11:17:06.200Z,22.83
2019-03-20T11:19:34.355Z,23.27
2019-03-20T11:22:02.401Z,23.30
2019-03-20T11:24:30.716Z,23.46
2019-03-20T11:26:58.956Z,23.99
2019-03-20T11:29:26.860Z,24.55
2019-03-20T11:31:54.887Z,24.31
2019-03-20T11:34:22.894Z,23.79
2019-03-20T11:36:50.768Z,22.30
2019-03-20T11:39:29.231Z,23.24
2019-03-20T11:41:49.694Z,25.32
2019-03-20T11:44:17.825Z,27.27
2019-03-20T11:46:45.769Z,25.71
2019-03-20T11:49:14.075Z,27.54
2019-03-20T11:51:41.958Z,27.61
2019-03-20T11:54:09.982Z,25.86
2019-03-20T11:56:38.005Z,21.99
2019-03-20T11:59:05.941Z,22.21
2019-03-20T12:01:34.017Z,23.76
2019-03-20T12:04:01.921Z,25.37
2019-03-20T12:06:29.810Z,24.54
2019-03-20T12:08:57.539Z,26.41
2019-03-20T12:11:25.599Z,25.07
2019-03-20T12:13:53.862Z,24.90
2019-03-20T12:16:21.869Z,23.58
2019-03-20T12:18:49.693Z,20.84
2019-03-20T12:21:17.663Z,20.70
2019-03-20T12:23:45.579Z,22.31
2019-03-20T12:26:13.460Z,23.23
2019-03-20T12:28:41.407Z,23.97
2019-03-20T12:31:09.538Z,24.99
2019-03-20T12:33:37.634Z,25.57
2019-03-20T12:36:05.629Z,24.98
2019-03-20T12:38:33.676Z,23.29
2019-03-20T12:41:01.801Z,24.45
2019-03-20T12:43:29.742Z,25.88
2019-03-20T12:45:57.770Z,26.82
2019-03-20T12:48:25.637Z,27.52
2019-03-20T12:50:53.567Z,25.58
2019-03-20T12:53:22.242Z,24.59
2019-03-20T12:55:50.237Z,24.01
2019-03-20T12:58:18.359Z,23.34
2019-03-20T13:03:16.404Z,25.89
2019-03-20T13:05:44.365Z,26.37
2019-03-20T13:08:12.476Z,26.21
2019-03-20T13:10:40.516Z,26.04
2019-03-20T13:13:08.664Z,24.76
2019-03-20T13:15:37.998Z,23.95
2019-03-20T13:18:06.026Z,23.33
2019-03-20T13:20:34.134Z,22.34
2019-03-20T13:23:07.381Z,23.96
2019-03-20T13:25:35.718Z,24.15
2019-03-20T13:28:03.889Z,23.04
2019-03-20T13:30:37.852Z,23.68
2019-03-20T13:33:05.932Z,21.97
2019-03-20T13:35:35.042Z,22.46
2019-03-20T13:38:03.161Z,22.64
2019-03-20T13:40:32.256Z,22.03
2019-03-20T13:43:00.257Z,20.83
2019-03-20T13:45:28.347Z,20.52
2019-03-20T13:47:58.238Z,22.45
2019-03-20T13:50:26.374Z,22.64
2019-03-20T13:52:54.409Z,21.43
2019-03-20T13:55:22.557Z,21.46
2019-03-20T13:57:50.748Z,22.32
2019-03-20T14:00:20.001Z,22.10
2019-03-20T14:02:48.370Z,21.27
2019-03-20T14:05:16.468Z,21.12
2019-03-20T14:07:44.545Z,21.34
2019-03-20T14:10:24.327Z,21.68
2019-03-20T14:12:45.515Z,22.25
2019-03-20T14:15:13.706Z,22.89
2019-03-20T14:17:41.631Z,22.01
2019-03-20T14:20:11.893Z,20.72
2019-03-20T14:22:39.942Z,21.21
2019-03-20T14:25:08.186Z,21.42
2019-03-20T14:27:37.199Z,19.71
2019-03-20T14:30:08.486Z,19.35
2019-03-20T14:32:36.540Z,17.62
2019-03-20T14:35:04.651Z,16.59
2019-03-20T14:37:32.682Z,15.61
2019-03-20T14:40:00.778Z,16.12
2019-03-20T14:42:29.053Z,17.20
2019-03-20T14:44:57.205Z,17.44
2019-03-20T14:47:25.167Z,17.82
2019-03-20T14:49:53.118Z,16.93
2019-03-20T14:52:21.157Z,16.34
2019-03-20T14:54:49.260Z,16.16
2019-03-20T14:57:17.297Z,15.23
2019-03-20T14:59:45.369Z,14.70
2019-03-20T15:02:13.375Z,14.49
2019-03-20T15:04:41.559Z,14.07
2019-03-20T15:07:10.010Z,13.14
2019-03-20T15:09:38.330Z,12.51
2019-03-20T15:12:06.199Z,12.31
2019-03-20T15:14:34.232Z,12.18
2019-03-20T15:17:02.254Z,11.87
2019-03-20T15:19:30.189Z,11.79
2019-03-20T15:21:58.256Z,11.66
2019-03-20T15:24:26.530Z,11.82
2019-03-20T15:26:54.472Z,11.58
2019-03-20T15:29:22.627Z,11.60
2019-03-20T15:31:50.717Z,11.43
2019-03-20T15:34:21.792Z,11.43
2019-03-20T15:36:49.709Z,11.29
2019-03-20T15:39:17.793Z,11.25
2019-03-20T15:41:45.795Z,10.93
2019-03-20T15:44:13.831Z,11.02
2019-03-20T15:46:41.917Z,10.92
2019-03-20T15:49:11.677Z,11.06
2019-03-20T15:51:39.606Z,10.98
2019-03-20T15:54:07.747Z,10.75
2019-03-20T15:56:35.689Z,10.68
2019-03-20T15:59:03.878Z,10.49
2019-03-20T16:01:31.930Z,10.44
2019-03-20T16:03:59.910Z,10.46
2019-03-20T16:06:27.969Z,10.42
2019-03-20T16:08:56.978Z,10.42
2019-03-20T16:11:25.041Z,10.31
2019-03-20T16:13:53.113Z,10.34
2019-03-20T16:16:21.047Z,10.37
2019-03-20T16:18:48.788Z,10.31
2019-03-20T16:21:16.814Z,10.29
2019-03-20T16:23:46.874Z,10.27
2019-03-20T16:26:14.810Z,10.25
2019-03-20T16:28:42.909Z,10.18
2019-03-20T16:31:11.091Z,10.07
2019-03-20T16:33:39.212Z,10.01
2019-03-20T16:36:07.214Z,9.78
2019-03-20T16:38:35.350Z,9.63
2019-03-20T16:41:03.636Z,9.55
2019-03-20T16:43:31.716Z,9.38
2019-03-20T16:46:00.216Z,9.29
2019-03-20T16:48:28.391Z,9.21
2019-03-20T16:50:56.458Z,9.20
2019-03-20T16:53:24.563Z,9.00
2019-03-20T16:55:52.805Z,8.94
2019-03-20T16:58:20.846Z,8.81
2019-03-20T17:00:48.894Z,8.76
2019-03-20T17:03:16.644Z,8.67
2019-03-20T17:05:44.737Z,8.54
2019-03-20T17:08:12.758Z,8.46
2019-03-20T17:10:41.061Z,8.36
2019-03-20T17:13:09.135Z,8.23
2019-03-20T17:15:37.215Z,8.18
2019-03-20T17:18:05.315Z,8.07
2019-03-20T17:20:33.438Z,8.04
2019-03-20T17:23:01.333Z,8.01
2019-03-20T17:25:29.248Z,7.99
2019-03-20T17:27:57.309Z,7.90
2019-03-20T17:30:27.602Z,7.79
2019-03-20T17:32:55.536Z,7.68
2019-03-20T17:35:23.512Z,7.63
2019-03-20T17:37:51.422Z,7.59
2019-03-20T17:40:19.350Z,7.54
2019-03-20T17:42:47.280Z,7.50
2019-03-20T17:45:16.236Z,7.47
2019-03-20T17:47:43.983Z,7.49
2019-03-20T17:50:15.026Z,7.38
2019-03-20T17:52:45.119Z,7.37
2019-03-20T17:55:12.964Z,7.29
2019-03-20T17:57:41.036Z,7.24
2019-03-20T18:00:15.126Z,7.18
2019-03-20T18:02:43.184Z,7.14
2019-03-20T18:05:11.222Z,7.05
2019-03-20T18:07:39.416Z,6.90
2019-03-20T18:10:07.521Z,6.70
2019-03-20T18:12:35.523Z,6.60
2019-03-20T18:15:05.062Z,6.48
2019-03-20T18:17:33.351Z,6.34
2019-03-20T18:20:01.546Z,6.23
2019-03-20T18:22:29.484Z,6.12
2019-03-20T18:24:57.761Z,5.98
2019-03-20T18:27:25.848Z,5.98
2019-03-20T18:29:53.958Z,5.77
2019-03-20T18:32:22.352Z,5.68
2019-03-20T18:34:50.322Z,5.63
2019-03-20T18:37:18.235Z,5.56
2019-03-20T18:39:46.170Z,5.39
2019-03-20T18:42:13.968Z,5.33
2019-03-20T18:44:43.101Z,5.28
2019-03-20T18:47:11.074Z,5.18
2019-03-20T18:49:39.295Z,4.96
2019-03-20T18:52:07.427Z,4.99
2019-03-20T18:54:35.539Z,4.89
2019-03-20T18:57:03.428Z,4.87
2019-03-20T18:59:31.454Z,4.76
2019-03-20T19:01:59.343Z,4.72
2019-03-20T19:04:27.213Z,4.48
2019-03-20T19:06:55.247Z,4.48
2019-03-20T19:09:23.537Z,4.41
2019-03-20T19:11:51.797Z,4.39
2019-03-20T19:14:19.847Z,4.28
2019-03-20T19:16:47.995Z,4.23
2019-03-20T19:19:15.970Z,4.24
2019-03-20T19:21:43.997Z,4.15
2019-03-20T19:24:12.179Z,3.91
2019-03-20T19:26:43.631Z,4.11
2019-03-20T19:29:12.467Z,4.06
2019-03-20T19:31:40.700Z,4.05
2019-03-20T19:34:08.722Z,4.02
2019-03-20T19:36:36.638Z,3.87
2019-03-20T19:39:07.335Z,3.76
2019-03-20T19:41:35.299Z,3.71
2019-03-20T19:44:03.503Z,3.63
2019-03-20T19:46:31.710Z,3.50
2019-03-20T19:48:59.779Z,3.40
2019-03-20T19:51:27.849Z,3.48
2019-03-20T19:53:56.000Z,3.49
2019-03-20T19:56:23.941Z,3.44
2019-03-20T19:58:51.819Z,3.36
2019-03-20T20:01:19.900Z,3.40
2019-03-20T20:03:49.087Z,3.27
2019-03-20T20:06:20.047Z,3.12
2019-03-20T20:08:49.925Z,2.96
2019-03-20T20:11:18.028Z,3.02
2019-03-20T20:13:46.096Z,2.86
2019-03-20T20:16:14.117Z,2.85
2019-03-20T20:18:42.199Z,2.85
2019-03-20T20:21:10.301Z,2.86
2019-03-20T20:23:38.310Z,2.88
2019-03-20T20:26:06.409Z,2.77
2019-03-20T20:28:34.323Z,2.89
2019-03-20T20:31:02.315Z,2.77
2019-03-20T20:33:30.469Z,2.77
2019-03-20T20:35:58.476Z,2.77
2019-03-20T20:38:26.421Z,2.82
2019-03-20T20:40:54.291Z,2.62
2019-03-20T20:43:22.185Z,2.47
2019-03-20T20:45:50.019Z,2.41
2019-03-20T20:48:18.017Z,2.51
2019-03-20T20:50:45.961Z,2.49
2019-03-20T20:53:14.000Z,2.55
2019-03-20T20:55:42.017Z,2.60
2019-03-20T20:58:10.170Z,2.62
2019-03-20T21:00:38.079Z,2.48
2019-03-20T21:03:06.035Z,2.34
2019-03-20T21:05:34.200Z,2.23
2019-03-20T21:08:02.202Z,2.31
2019-03-20T21:10:30.244Z,2.30
2019-03-20T21:12:58.180Z,2.37
2019-03-20T21:15:40.508Z,2.30
2019-03-20T21:18:59.141Z,2.15
2019-03-20T21:22:04.699Z,2.27
2019-03-20T21:24:33.324Z,2.25
2019-03-20T21:27:43.251Z,1.93
2019-03-20T21:30:41.897Z,2.11
2019-03-20T21:33:22.676Z,2.06
2019-03-20T21:36:33.548Z,2.05
2019-03-20T21:39:01.993Z,1.85
2019-03-20T21:42:28.782Z,1.81
2019-03-20T21:45:22.807Z,1.73
2019-03-20T21:47:51.225Z,1.79
2019-03-20T21:51:01.013Z,1.67
2019-03-20T21:53:55.392Z,1.62
2019-03-20T21:56:35.407Z,1.58
2019-03-20T21:59:30.908Z,1.47
2019-03-20T22:02:28.825Z,1.43
2019-03-20T22:04:57.577Z,1.48
2019-03-20T22:07:25.944Z,1.51
2019-03-20T22:10:28.338Z,1.48
2019-03-20T22:13:19.168Z,1.28
2019-03-20T22:16:26.775Z,1.27
2019-03-20T22:19:21.147Z,1.28
2019-03-20T22:22:00.386Z,1.25
2019-03-20T22:24:52.235Z,1.14
2019-03-20T22:27:39.842Z,0.94
2019-03-20T22:30:08.741Z,0.85
2019-03-20T22:33:27.834Z,0.92
2019-03-20T22:36:18.057Z,0.93
2019-03-20T22:39:48.668Z,0.89
2019-03-20T22:42:37.528Z,0.94
2019-03-20T22:45:38.978Z,0.79
2019-03-20T22:48:43.698Z,0.92
2019-03-20T22:51:52.478Z,0.77
2019-03-20T22:54:57.574Z,0.76
2019-03-20T22:57:31.389Z,0.82
2019-03-20T23:00:00.004Z,0.80
2019-03-20T23:02:46.595Z,0.70
2019-03-20T23:05:14.987Z,0.61
2019-03-20T23:07:43.275Z,0.41
2019-03-20T23:10:13.092Z,0.47
2019-03-20T23:12:41.873Z,0.53
2019-03-20T23:15:13.744Z,0.43
2019-03-20T23:17:42.360Z,0.29
2019-03-20T23:20:13.132Z,0.49
2019-03-20T23:22:41.797Z,0.41
2019-03-20T23:25:10.299Z,0.34
2019-03-20T23:27:38.647Z,0.29
2019-03-20T23:30:11.394Z,0.18
2019-03-20T23:32:41.382Z,0.23
2019-03-20T23:35:10.020Z,0.07
2019-03-20T23:37:38.733Z,0.20
2019-03-20T23:40:09.230Z,0.30
2019-03-20T23:42:37.737Z,0.26
2019-03-20T23:45:07.824Z,0.21
2019-03-20T23:48:30.115Z,0.20
2019-03-20T23:51:02.223Z,0.19
2019-03-20T23:53:30.988Z,0.19
2019-03-20T23:55:59.295Z,0.28
2019-03-20T23:58:28.842Z,0.19
